createdAt,value
2023-11-02T00:02:32.320Z,8.40
2023-11-02T00:04:58.929Z,8.60
2023-11-02T00:07:29.189Z,8.00
2023-11-02T00:09:57.551Z,8.50
2023-11-02T00:12:28.861Z,8.53
2023-11-02T00:14:56.144Z,8.30
2023-11-02T00:17:32.455Z,8.57
2023-11-02T00:19:59.384Z,8.93
2023-11-02T00:22:29.479Z,9.03
2023-11-02T00:25:02.050Z,8.47
2023-11-02T00:27:29.364Z,9.57
2023-11-02T00:29:56.504Z,8.40
2023-11-02T00:32:23.231Z,8.50
2023-11-02T00:34:50.396Z,8.00
2023-11-02T00:37:17.769Z,9.43
2023-11-02T00:39:45.225Z,9.00
2023-11-02T00:42:12.779Z,8.40
2023-11-02T00:44:39.815Z,8.80
2023-11-02T00:47:06.917Z,8.23
2023-11-02T00:49:33.880Z,8.50
2023-11-02T00:52:02.198Z,8.87
2023-11-02T00:54:44.705Z,8.70
2023-11-02T00:57:15.159Z,8.73
2023-11-02T00:59:42.779Z,8.80
2023-11-02T01:02:09.811Z,8.80
2023-11-02T01:04:48.487Z,9.17
2023-11-02T01:07:16.262Z,8.70
2023-11-02T01:10:01.180Z,8.70
2023-11-02T01:12:39.419Z,8.80
2023-11-02T01:15:30.022Z,8.70
2023-11-02T01:17:56.647Z,8.23
2023-11-02T01:20:39.590Z,8.90
2023-11-02T01:23:10.506Z,8.30
2023-11-02T01:25:47.295Z,9.13
2023-11-02T01:28:16.737Z,8.40
2023-11-02T01:30:43.291Z,8.30
2023-11-02T01:33:28.781Z,8.73
2023-11-02T01:35:56.915Z,8.20
2023-11-02T01:38:25.172Z,8.50
2023-11-02T01:41:10.625Z,8.90
2023-11-02T01:44:13.993Z,8.70
2023-11-02T01:46:41.034Z,8.30
2023-11-02T01:49:16.407Z,8.30
2023-11-02T01:52:15.537Z,9.33
2023-11-02T01:55:03.878Z,8.37
2023-11-02T01:57:48.466Z,8.87
2023-11-02T02:00:22.855Z,8.20
2023-11-02T02:02:49.864Z,8.53
2023-11-02T02:05:27.538Z,8.37
2023-11-02T02:08:05.569Z,8.33
2023-11-02T02:10:50.911Z,8.70
2023-11-02T02:13:24.805Z,8.30
2023-11-02T02:15:54.955Z,8.93
2023-11-02T02:18:49.512Z,8.80
2023-11-02T02:21:32.337Z,8.63
2023-11-02T02:23:59.424Z,9.17
2023-11-02T02:26:44.484Z,8.33
2023-11-02T02:29:33.665Z,7.97
2023-11-02T02:32:23.500Z,9.23
2023-11-02T02:35:01.362Z,8.60
2023-11-02T02:37:50.951Z,9.33
2023-11-02T02:40:30.171Z,8.50
2023-11-02T02:42:57.541Z,8.40
2023-11-02T02:45:25.568Z,8.80
2023-11-02T02:47:53.769Z,8.53
2023-11-02T02:50:21.735Z,9.50
2023-11-02T02:52:50.348Z,9.17
2023-11-02T02:55:20.623Z,8.23
2023-11-02T02:57:48.253Z,8.77
2023-11-02T03:00:16.572Z,8.60
2023-11-02T03:02:44.413Z,8.07
2023-11-02T03:05:13.653Z,8.50
2023-11-02T03:07:40.691Z,8.17
2023-11-02T03:10:09.240Z,8.30
2023-11-02T03:12:39.699Z,8.07
2023-11-02T03:15:08.432Z,8.20
2023-11-02T03:18:00.299Z,8.70
2023-11-02T03:20:27.803Z,8.50
2023-11-02T03:23:03.587Z,8.33
2023-11-02T03:25:52.815Z,8.67
2023-11-02T03:28:20.029Z,8.50
2023-11-02T03:30:50.138Z,7.77
2023-11-02T03:33:35.224Z,8.73
2023-11-02T03:36:08.306Z,8.20
2023-11-02T03:38:53.856Z,8.77
2023-11-02T03:41:35.005Z,8.27
2023-11-02T03:44:14.567Z,8.60
2023-11-02T03:47:04.652Z,8.60
2023-11-02T03:49:42.055Z,8.73
2023-11-02T03:52:21.328Z,8.30
2023-11-02T03:54:54.020Z,8.43
2023-11-02T03:57:32.484Z,8.60
2023-11-02T04:00:16.247Z,8.30
2023-11-02T04:02:50.828Z,8.60
2023-11-02T04:05:21.786Z,8.57
2023-11-02T04:08:07.588Z,8.53
2023-11-02T04:10:36.678Z,8.73
2023-11-02T04:13:19.143Z,9.10
2023-11-02T04:15:46.227Z,8.50
2023-11-02T04:18:12.994Z,7.73
2023-11-02T04:20:40.124Z,8.33
2023-11-02T04:23:07.434Z,8.53
2023-11-02T04:25:34.457Z,8.70
2023-11-02T04:28:02.675Z,9.70
2023-11-02T04:30:29.971Z,8.80
2023-11-02T04:32:56.980Z,8.90
2023-11-02T04:35:24.114Z,9.17
2023-11-02T04:38:07.297Z,8.60
2023-11-02T04:40:34.376Z,8.03
2023-11-02T04:43:02.124Z,8.83
2023-11-02T04:45:30.054Z,8.67
2023-11-02T04:47:57.574Z,8.67
2023-11-02T04:50:24.310Z,8.00
2023-11-02T04:52:51.884Z,8.60
2023-11-02T04:55:18.776Z,8.50
2023-11-02T04:57:45.827Z,8.20
2023-11-02T05:00:13.303Z,8.40
2023-11-02T05:02:40.229Z,7.87
2023-11-02T05:05:07.230Z,8.60
2023-11-02T05:07:34.261Z,8.10
2023-11-02T05:10:01.253Z,8.20
2023-11-02T05:12:28.357Z,8.50
2023-11-02T05:14:54.955Z,7.77
2023-11-02T05:17:21.602Z,8.50
2023-11-02T05:19:48.632Z,7.93
2023-11-02T05:22:15.198Z,9.07
2023-11-02T05:24:42.041Z,7.97
2023-11-02T05:27:09.084Z,8.10
2023-11-02T05:29:35.700Z,8.30
2023-11-02T05:32:02.764Z,7.97
2023-11-02T05:34:30.120Z,8.13
2023-11-02T05:36:57.229Z,8.00
2023-11-02T05:39:23.861Z,8.30
2023-11-02T05:41:50.892Z,8.00
2023-11-02T05:44:17.972Z,8.57
2023-11-02T05:46:45.078Z,8.10
2023-11-02T05:49:12.224Z,8.13
2023-11-02T05:51:39.338Z,7.47
2023-11-02T05:54:06.481Z,8.20
2023-11-02T05:56:33.505Z,8.17
2023-11-02T05:59:00.542Z,7.77
2023-11-02T06:01:27.566Z,8.00
2023-11-02T06:03:54.591Z,8.10
2023-11-02T06:06:21.756Z,7.67
2023-11-02T06:08:48.866Z,7.90
2023-11-02T06:11:15.563Z,7.37
2023-11-02T06:13:42.150Z,7.60
2023-11-02T06:16:09.705Z,7.77
2023-11-02T06:18:36.768Z,7.17
2023-11-02T06:21:03.844Z,7.90
2023-11-02T06:23:30.903Z,7.80
2023-11-02T06:25:57.988Z,7.50
2023-11-02T06:28:25.694Z,7.00
2023-11-02T06:30:52.949Z,8.10
2023-11-02T06:33:26.892Z,7.67
2023-11-02T06:35:53.932Z,7.30
2023-11-02T06:38:22.587Z,7.90
2023-11-02T06:40:49.816Z,7.60
2023-11-02T06:43:16.964Z,7.20
2023-11-02T06:45:44.177Z,7.70
2023-11-02T06:48:11.533Z,7.27
2023-11-02T06:50:38.789Z,7.80
2023-11-02T06:53:05.437Z,7.77
2023-11-02T06:55:32.609Z,7.60
2023-11-02T06:57:59.653Z,7.47
2023-11-02T07:00:26.685Z,7.70
2023-11-02T07:02:53.774Z,7.70
2023-11-02T07:05:20.961Z,8.50
2023-11-02T07:07:50.305Z,7.60
2023-11-02T07:10:17.836Z,7.33
2023-11-02T07:12:45.092Z,7.50
2023-11-02T07:15:13.185Z,8.17
2023-11-02T07:17:40.414Z,7.40
2023-11-02T07:20:08.239Z,7.37
2023-11-02T07:22:35.631Z,8.13
2023-11-02T07:25:02.746Z,7.60
2023-11-02T07:27:30.655Z,7.80
2023-11-02T07:29:57.745Z,7.67
2023-11-02T07:32:24.896Z,7.47
2023-11-02T07:34:52.113Z,7.80
2023-11-02T07:37:19.298Z,7.83
2023-11-02T07:39:46.371Z,8.10
2023-11-02T07:42:13.437Z,7.50
2023-11-02T07:44:40.706Z,8.17
2023-11-02T07:47:08.086Z,8.30
2023-11-02T07:49:35.215Z,8.77
2023-11-02T07:52:02.909Z,6.03
2023-11-02T07:54:29.953Z,7.30
2023-11-02T07:56:57.032Z,7.20
2023-11-02T07:59:24.092Z,7.60
2023-11-02T08:01:50.705Z,7.57
2023-11-02T08:04:17.780Z,7.60
2023-11-02T08:06:44.442Z,7.90
2023-11-02T08:09:11.465Z,7.80
2023-11-02T08:11:39.470Z,8.63
2023-11-02T08:14:06.618Z,7.67
2023-11-02T08:16:33.624Z,8.13
2023-11-02T08:19:00.885Z,7.30
2023-11-02T08:21:27.634Z,7.40
2023-11-02T08:23:54.676Z,8.03
2023-11-02T08:26:24.703Z,7.50
2023-11-02T08:28:56.239Z,7.40
2023-11-02T08:31:26.780Z,7.10
2023-11-02T08:33:55.122Z,7.30
2023-11-02T08:36:22.063Z,7.50
2023-11-02T08:38:49.592Z,7.20
2023-11-02T08:41:25.349Z,7.10
2023-11-02T08:43:52.392Z,7.77
2023-11-02T08:46:20.085Z,7.27
2023-11-02T08:48:47.913Z,7.23
2023-11-02T08:51:16.984Z,7.60
2023-11-02T08:53:44.144Z,7.80
2023-11-02T08:56:11.770Z,7.63
2023-11-02T08:58:52.972Z,7.67
2023-11-02T09:01:22.057Z,8.10
2023-11-02T09:03:49.138Z,7.57
2023-11-02T09:06:15.866Z,7.40
2023-11-02T09:08:43.361Z,7.70
2023-11-02T09:11:10.392Z,7.10
2023-11-02T09:13:36.947Z,7.57
2023-11-02T09:16:05.168Z,7.60
2023-11-02T09:18:32.184Z,7.40
2023-11-02T09:20:59.198Z,7.30
2023-11-02T09:23:27.533Z,7.70
2023-11-02T09:25:54.858Z,7.30
2023-11-02T09:28:22.096Z,8.27
2023-11-02T09:30:49.221Z,6.93
2023-11-02T09:33:16.360Z,7.83
2023-11-02T09:35:43.020Z,7.67
2023-11-02T09:38:10.025Z,7.83
2023-11-02T09:40:36.831Z,7.57
2023-11-02T09:43:05.865Z,7.77
2023-11-02T09:45:33.536Z,8.23
2023-11-02T09:48:01.076Z,7.70
2023-11-02T09:50:28.682Z,7.33
2023-11-02T09:52:56.393Z,7.70
2023-11-02T09:55:24.015Z,8.17
2023-11-02T09:57:51.604Z,7.97
2023-11-02T10:00:19.467Z,8.00
2023-11-02T10:02:50.645Z,8.30
2023-11-02T10:05:19.527Z,8.17
2023-11-02T10:07:52.279Z,8.03
2023-11-02T10:10:20.006Z,7.43
2023-11-02T10:12:47.187Z,7.47
2023-11-02T10:15:17.873Z,8.57
2023-11-02T10:17:45.390Z,7.90
2023-11-02T10:20:18.500Z,8.00
2023-11-02T10:22:58.134Z,7.50
2023-11-02T10:25:24.761Z,8.07
2023-11-02T10:27:52.239Z,7.50
2023-11-02T10:30:19.489Z,7.60
2023-11-02T10:32:46.590Z,7.77
2023-11-02T10:35:13.469Z,7.53
2023-11-02T10:37:40.588Z,7.70
2023-11-02T10:40:07.885Z,7.00
2023-11-02T10:42:35.450Z,7.63
2023-11-02T10:45:04.360Z,7.53
2023-11-02T10:47:31.879Z,7.03
2023-11-02T10:49:59.716Z,7.77
2023-11-02T10:52:29.312Z,7.90
2023-11-02T10:55:15.590Z,7.13
2023-11-02T10:57:43.455Z,7.10
2023-11-02T11:00:10.877Z,7.70
2023-11-02T11:02:38.979Z,7.63
2023-11-02T11:05:06.553Z,8.03
2023-11-02T11:07:43.680Z,8.07
2023-11-02T11:10:13.834Z,7.47
2023-11-02T11:12:42.190Z,7.60
2023-11-02T11:15:13.048Z,7.57
2023-11-02T11:17:48.431Z,7.47
2023-11-02T11:20:17.160Z,7.33
2023-11-02T11:22:46.376Z,7.23
2023-11-02T11:25:15.193Z,7.03
2023-11-02T11:27:42.031Z,7.57
2023-11-02T11:30:21.259Z,7.00
2023-11-02T11:32:48.777Z,7.47
2023-11-02T11:35:18.528Z,7.20
2023-11-02T11:37:59.188Z,7.30
2023-11-02T11:40:26.307Z,7.90
2023-11-02T11:42:57.383Z,7.03
2023-11-02T11:45:28.081Z,7.23
2023-11-02T11:47:55.289Z,7.93
2023-11-02T11:50:43.167Z,7.20
2023-11-02T11:53:16.494Z,6.73
2023-11-02T11:55:44.588Z,7.40
2023-11-02T11:58:11.388Z,7.10
2023-11-02T12:00:58.427Z,6.93
2023-11-02T12:03:37.962Z,7.67
2023-11-02T12:06:06.092Z,7.33
2023-11-02T12:08:33.968Z,7.77
2023-11-02T12:11:01.742Z,6.87
2023-11-02T12:13:30.407Z,7.07
2023-11-02T12:16:01.506Z,7.73
2023-11-02T12:18:30.063Z,6.57
2023-11-02T12:20:58.904Z,7.83
2023-11-02T12:23:52.110Z,6.50
2023-11-02T12:26:23.636Z,7.17
2023-11-02T12:28:51.842Z,7.43
2023-11-02T12:31:35.599Z,7.87
2023-11-02T12:34:09.512Z,7.23
2023-11-02T12:36:37.166Z,7.77
2023-11-02T12:39:12.452Z,7.47
2023-11-02T12:41:40.087Z,7.20
2023-11-02T12:44:10.607Z,7.33
2023-11-02T12:46:49.798Z,7.40
2023-11-02T12:49:27.438Z,8.00
2023-11-02T12:51:54.617Z,7.73
2023-11-02T12:54:22.599Z,7.80
2023-11-02T12:56:55.673Z,8.20
2023-11-02T12:59:27.142Z,7.57
2023-11-02T13:02:04.769Z,8.13
2023-11-02T13:04:55.362Z,7.73
2023-11-02T13:07:29.791Z,7.67
2023-11-02T13:10:18.500Z,7.70
2023-11-02T13:12:46.350Z,7.97
2023-11-02T13:15:17.467Z,7.23
2023-11-02T13:17:46.100Z,7.83
2023-11-02T13:20:15.692Z,7.87
2023-11-02T13:22:46.998Z,7.23
2023-11-02T13:25:16.912Z,8.23
2023-11-02T13:27:45.453Z,8.23
2023-11-02T13:30:13.233Z,6.73
2023-11-02T13:32:41.229Z,7.67
2023-11-02T13:35:09.380Z,7.07
2023-11-02T13:37:36.565Z,7.23
2023-11-02T13:40:04.988Z,7.33
2023-11-02T13:42:32.303Z,7.23
2023-11-02T13:44:59.429Z,7.67
2023-11-02T13:47:26.587Z,7.33
2023-11-02T13:49:53.662Z,7.60
2023-11-02T13:52:21.557Z,7.90
2023-11-02T13:54:48.754Z,7.70
2023-11-02T13:57:15.938Z,7.90
2023-11-02T13:59:42.949Z,8.30
2023-11-02T14:02:10.631Z,7.13
2023-11-02T14:04:37.885Z,8.27
2023-11-02T14:07:05.187Z,7.80
2023-11-02T14:09:32.300Z,7.97
2023-11-02T14:11:59.332Z,8.57
2023-11-02T14:14:26.847Z,9.27
2023-11-02T14:16:54.006Z,7.80
2023-11-02T14:19:21.002Z,7.83
2023-11-02T14:21:48.152Z,8.37
2023-11-02T14:24:15.222Z,8.60
2023-11-02T14:26:42.280Z,8.00
2023-11-02T14:29:09.316Z,8.83
2023-11-02T14:31:36.341Z,8.63
2023-11-02T14:34:03.813Z,8.40
2023-11-02T14:36:31.907Z,8.00
2023-11-02T14:39:01.312Z,8.00
2023-11-02T14:41:28.340Z,8.10
2023-11-02T14:43:56.419Z,8.00
2023-11-02T14:46:23.494Z,8.10
2023-11-02T14:48:50.558Z,8.00
2023-11-02T14:51:17.899Z,8.50
2023-11-02T14:53:45.045Z,8.37
2023-11-02T14:56:12.044Z,8.27
2023-11-02T14:58:40.422Z,7.67
2023-11-02T15:01:07.444Z,8.37
2023-11-02T15:03:34.562Z,8.03
2023-11-02T15:06:03.067Z,7.83
2023-11-02T15:08:30.267Z,8.17
2023-11-02T15:10:57.283Z,7.47
2023-11-02T15:13:24.392Z,8.20
2023-11-02T15:15:51.612Z,7.53
2023-11-02T15:18:19.103Z,8.23
2023-11-02T15:20:47.917Z,8.00
2023-11-02T15:23:14.924Z,9.07
2023-11-02T15:25:41.948Z,8.40
2023-11-02T15:28:08.967Z,8.83
2023-11-02T15:30:36.174Z,8.00
2023-11-02T15:33:03.253Z,8.10
2023-11-02T15:35:30.493Z,8.20
2023-11-02T15:37:57.566Z,8.53
2023-11-02T15:40:24.619Z,8.93
2023-11-02T15:42:51.787Z,8.73
2023-11-02T15:45:18.928Z,7.93
2023-11-02T15:47:45.988Z,9.10
2023-11-02T15:50:13.423Z,8.80
2023-11-02T15:52:44.578Z,8.00
2023-11-02T15:55:12.106Z,8.50
2023-11-02T15:57:43.588Z,9.17
2023-11-02T16:00:17.706Z,8.87
2023-11-02T16:02:47.830Z,7.70
2023-11-02T16:05:15.432Z,8.53
2023-11-02T16:07:42.954Z,8.70
2023-11-02T16:10:10.429Z,8.97
2023-11-02T16:12:38.478Z,7.90
2023-11-02T16:15:06.307Z,9.17
2023-11-02T16:17:33.367Z,8.83
2023-11-02T16:20:01.632Z,8.77
2023-11-02T16:22:29.032Z,8.50
2023-11-02T16:24:56.064Z,8.73
2023-11-02T16:27:23.262Z,9.17
2023-11-02T16:29:50.394Z,8.77
2023-11-02T16:32:17.448Z,8.97
2023-11-02T16:34:48.722Z,8.77
2023-11-02T16:37:22.953Z,9.03
2023-11-02T16:39:49.983Z,8.93
2023-11-02T16:42:17.043Z,8.30
2023-11-02T16:44:44.085Z,8.70
2023-11-02T16:47:11.140Z,8.53
2023-11-02T16:49:38.191Z,9.07
2023-11-02T16:52:06.711Z,9.00
2023-11-02T16:54:34.081Z,8.77
2023-11-02T16:57:01.137Z,8.67
2023-11-02T16:59:28.148Z,8.80
2023-11-02T17:01:58.153Z,8.77
2023-11-02T17:04:25.549Z,8.53
2023-11-02T17:06:52.855Z,8.90
2023-11-02T17:09:20.132Z,9.37
2023-11-02T17:11:47.377Z,9.27
2023-11-02T17:14:14.381Z,8.70
2023-11-02T17:16:41.799Z,9.07
2023-11-02T17:19:10.867Z,8.77
2023-11-02T17:21:38.180Z,9.67
2023-11-02T17:24:05.646Z,9.73
2023-11-02T17:26:32.768Z,9.03
2023-11-02T17:29:00.869Z,8.03
2023-11-02T17:31:28.484Z,8.93
2023-11-02T17:33:55.557Z,10.10
2023-11-02T17:36:22.816Z,9.73
2023-11-02T17:38:49.928Z,9.40
2023-11-02T17:41:17.622Z,9.53
2023-11-02T17:43:46.002Z,10.50
2023-11-02T17:46:16.244Z,9.63
2023-11-02T17:48:43.333Z,10.57
2023-11-02T17:51:10.794Z,9.53
2023-11-02T17:53:37.899Z,9.17
2023-11-02T17:56:05.160Z,9.47
2023-11-02T17:58:32.167Z,9.70
2023-11-02T18:01:00.464Z,8.73
2023-11-02T18:03:28.886Z,9.60
2023-11-02T18:05:56.040Z,9.33
2023-11-02T18:08:23.347Z,8.70
2023-11-02T18:10:50.367Z,9.40
2023-11-02T18:13:17.388Z,8.83
2023-11-02T18:15:50.345Z,9.37
2023-11-02T18:18:20.911Z,8.83
2023-11-02T18:20:48.270Z,10.07
2023-11-02T18:23:15.295Z,8.60
2023-11-02T18:25:42.842Z,8.77
2023-11-02T18:28:10.176Z,9.83
2023-11-02T18:30:37.676Z,9.50
2023-11-02T18:33:05.298Z,9.50
2023-11-02T18:35:32.376Z,9.80
2023-11-02T18:37:59.865Z,8.73
2023-11-02T18:40:27.025Z,9.43
2023-11-02T18:42:54.606Z,10.13
2023-11-02T18:45:22.076Z,9.00
2023-11-02T18:47:49.283Z,9.13
2023-11-02T18:50:16.745Z,8.53
2023-11-02T18:52:44.027Z,9.47
2023-11-02T18:55:11.144Z,9.67
2023-11-02T18:57:38.294Z,8.63
2023-11-02T19:00:07.071Z,8.43
2023-11-02T19:02:39.166Z,9.50
2023-11-02T19:05:07.509Z,8.53
2023-11-02T19:07:34.568Z,10.00
2023-11-02T19:10:01.643Z,9.90
2023-11-02T19:12:28.739Z,9.50
2023-11-02T19:14:55.744Z,9.67
2023-11-02T19:17:22.779Z,10.27
2023-11-02T19:19:50.239Z,9.03
2023-11-02T19:22:18.562Z,9.33
2023-11-02T19:24:45.655Z,9.83
2023-11-02T19:27:12.774Z,8.80
2023-11-02T19:29:40.021Z,9.50
2023-11-02T19:32:07.122Z,9.13
2023-11-02T19:34:34.234Z,9.93
2023-11-02T19:37:02.909Z,9.03
2023-11-02T19:39:32.285Z,8.73
2023-11-02T19:41:59.836Z,10.03
2023-11-02T19:44:26.834Z,8.90
2023-11-02T19:46:53.869Z,9.40
2023-11-02T19:49:21.187Z,10.57
2023-11-02T19:51:48.323Z,9.67
2023-11-02T19:54:16.263Z,10.13
2023-11-02T19:56:44.308Z,8.90
2023-11-02T19:59:12.061Z,9.17
2023-11-02T20:01:42.560Z,10.00
2023-11-02T20:04:11.833Z,10.00
2023-11-02T20:06:39.259Z,9.37
2023-11-02T20:09:07.057Z,9.27
2023-11-02T20:11:34.607Z,9.70
2023-11-02T20:14:01.820Z,8.97
2023-11-02T20:16:28.906Z,9.27
2023-11-02T20:18:56.035Z,8.90
2023-11-02T20:21:25.013Z,10.03
2023-11-02T20:23:52.917Z,8.63
2023-11-02T20:26:20.148Z,8.57
2023-11-02T20:28:47.188Z,8.90
2023-11-02T20:31:14.274Z,9.00
2023-11-02T20:33:42.732Z,8.27
2023-11-02T20:36:10.295Z,8.67
2023-11-02T20:38:37.855Z,8.97
2023-11-02T20:41:05.734Z,9.07
2023-11-02T20:43:32.997Z,9.20
2023-11-02T20:46:00.334Z,9.20
2023-11-02T20:48:27.692Z,9.17
2023-11-02T20:50:54.889Z,9.30
2023-11-02T20:53:22.482Z,9.73
2023-11-02T20:55:49.528Z,9.00
2023-11-02T20:58:16.844Z,9.60
2023-11-02T21:00:50.637Z,9.20
2023-11-02T21:03:23.868Z,9.73
2023-11-02T21:05:54.492Z,9.77
2023-11-02T21:08:21.475Z,10.07
2023-11-02T21:10:48.988Z,9.50
2023-11-02T21:13:18.085Z,9.93
2023-11-02T21:15:45.532Z,9.50
2023-11-02T21:18:12.715Z,9.87
2023-11-02T21:20:39.823Z,9.70
2023-11-02T21:23:06.936Z,10.10
2023-11-02T21:25:34.396Z,9.67
2023-11-02T21:28:02.248Z,10.60
2023-11-02T21:30:29.567Z,10.07
2023-11-02T21:32:58.126Z,9.70
2023-11-02T21:35:25.211Z,11.43
2023-11-02T21:37:53.489Z,10.43
2023-11-02T21:40:20.709Z,9.97
2023-11-02T21:42:48.596Z,10.03
2023-11-02T21:45:15.756Z,10.70
2023-11-02T21:47:42.807Z,10.50
2023-11-02T21:50:11.999Z,10.03
2023-11-02T21:52:39.967Z,10.23
2023-11-02T21:55:07.475Z,10.80
2023-11-02T21:57:34.705Z,9.47
2023-11-02T22:00:01.924Z,10.43
2023-11-02T22:02:28.987Z,11.67
2023-11-02T22:04:57.040Z,9.80
2023-11-02T22:07:24.167Z,10.00
2023-11-02T22:09:51.877Z,10.80
2023-11-02T22:12:18.910Z,10.10
2023-11-02T22:14:46.017Z,10.03
2023-11-02T22:17:13.063Z,10.43
2023-11-02T22:19:44.436Z,10.53
2023-11-02T22:22:11.868Z,10.23
2023-11-02T22:24:39.250Z,10.00
2023-11-02T22:27:06.286Z,9.80
2023-11-02T22:29:33.375Z,10.20
2023-11-02T22:32:01.653Z,9.87
2023-11-02T22:34:28.910Z,10.30
2023-11-02T22:36:57.577Z,9.50
2023-11-02T22:39:25.077Z,10.73
2023-11-02T22:41:52.131Z,10.03
2023-11-02T22:44:20.156Z,10.00
2023-11-02T22:46:47.221Z,10.50
2023-11-02T22:49:14.296Z,10.47
2023-11-02T22:51:41.389Z,9.73
2023-11-02T22:54:08.920Z,10.93
2023-11-02T22:56:35.973Z,10.20
2023-11-02T22:59:03.023Z,10.73
2023-11-02T23:01:30.033Z,9.63
2023-11-02T23:03:57.336Z,10.20
2023-11-02T23:06:24.396Z,10.70
2023-11-02T23:08:51.585Z,10.43
2023-11-02T23:11:19.225Z,10.60
2023-11-02T23:13:46.933Z,10.37
2023-11-02T23:16:15.018Z,9.70
2023-11-02T23:18:43.689Z,11.03
2023-11-02T23:21:11.586Z,10.50
2023-11-02T23:23:39.342Z,11.17
2023-11-02T23:26:07.190Z,10.43
2023-11-02T23:28:34.704Z,10.00
2023-11-02T23:31:02.127Z,9.27
2023-11-02T23:33:29.247Z,9.80
2023-11-02T23:35:56.455Z,9.50
2023-11-02T23:38:23.865Z,10.37
2023-11-02T23:40:50.919Z,10.40
2023-11-02T23:43:17.977Z,10.53
2023-11-02T23:45:44.991Z,10.30
2023-11-02T23:48:12.100Z,10.20
2023-11-02T23:50:39.439Z,9.37
2023-11-02T23:53:10.708Z,9.60
2023-11-02T23:55:38.249Z,9.73
2023-11-02T23:58:05.590Z,9.87
